Terminal Aerodrome Forecast
Issued by NWS La Crosse, WI

Home | Current Version | Previous Version | Text Only | Print | Product List | Glossary On
Versions: 1 2 3 4 5 6 7 8 9 10 11 12 13 14 15 16 17 18 19 20 21 22 23 24 25 26 27 28 29 30 31 32 33 34 35 36 37 38 39 40 41 42 43 44 45 46 47 48 49 50
477
FTUS43 KARX 281720
TAFRST
TAF
KRST 281720Z 2818/2918 15006KT P6SM SCT020 SCT030
     FM282100 15006KT P6SM SCT035
     FM290000 15006KT P6SM SCT200
     FM290800 17006KT 5SM BR SCT250
     FM291500 17008KT P6SM SCT035=

USA.gov is the U.S. government's official web portal to all federal, state and local government web resources and services.